sensor_id;sensor_type;location;lat;lon;timestamp;P1;durP1;ratioP1;P2;durP2;ratioP2
5981;SDS011;3018;48.730;9.336;2023-02-01T00:01:34;3.22;;;3.03;;
5981;SDS011;3018;48.730;9.336;2023-02-01T00:04:01;5.15;;;3.22;;
5981;SDS011;3018;48.730;9.336;2023-02-01T00:06:27;3.92;;;2.80;;
5981;SDS011;3018;48.730;9.336;2023-02-01T00:08:53;3.70;;;3.40;;
5981;SDS011;3018;48.730;9.336;2023-02-01T00:11:20;3.75;;;3.10;;
5981;SDS011;3018;48.730;9.336;2023-02-01T00:13:46;3.33;;;3.13;;
5981;SDS011;3018;48.730;9.336;2023-02-01T00:16:14;3.35;;;3.08;;
5981;SDS011;3018;48.730;9.336;2023-02-01T00:18:42;2.88;;;2.67;;
5981;SDS011;3018;48.730;9.336;2023-02-01T00:21:09;2.70;;;2.60;;
5981;SDS011;3018;48.730;9.336;2023-02-01T00:23:36;2.83;;;2.58;;
5981;SDS011;3018;48.730;9.336;2023-02-01T00:26:04;2.72;;;2.47;;
5981;SDS011;3018;48.730;9.336;2023-02-01T00:28:31;3.58;;;2.90;;
5981;SDS011;3018;48.730;9.336;2023-02-01T00:30:58;2.88;;;2.55;;
5981;SDS011;3018;48.730;9.336;2023-02-01T00:33:24;2.42;;;2.33;;
5981;SDS011;3018;48.730;9.336;2023-02-01T00:35:55;2.65;;;2.42;;
5981;SDS011;3018;48.730;9.336;2023-02-01T00:38:21;2.47;;;2.38;;
5981;SDS011;3018;48.730;9.336;2023-02-01T00:40:48;2.45;;;2.35;;
5981;SDS011;3018;48.730;9.336;2023-02-01T00:43:14;2.92;;;2.72;;
5981;SDS011;3018;48.730;9.336;2023-02-01T00:45:40;2.20;;;2.10;;
5981;SDS011;3018;48.730;9.336;2023-02-01T00:48:06;1.95;;;1.85;;
5981;SDS011;3018;48.730;9.336;2023-02-01T00:50:33;1.90;;;1.90;;
5981;SDS011;3018;48.730;9.336;2023-02-01T00:53:00;2.45;;;2.35;;
5981;SDS011;3018;48.730;9.336;2023-02-01T00:55:27;3.20;;;2.20;;
5981;SDS011;3018;48.730;9.336;2023-02-01T00:57:53;2.22;;;2.13;;
5981;SDS011;3018;48.730;9.336;2023-02-01T01:00:19;2.28;;;2.08;;
5981;SDS011;3018;48.730;9.336;2023-02-01T01:02:45;2.40;;;2.25;;
5981;SDS011;3018;48.730;9.336;2023-02-01T01:05:12;2.05;;;1.98;;
5981;SDS011;3018;48.730;9.336;2023-02-01T01:07:38;2.22;;;2.13;;
5981;SDS011;3018;48.730;9.336;2023-02-01T01:10:07;2.10;;;2.00;;
5981;SDS011;3018;48.730;9.336;2023-02-01T01:12:33;1.98;;;1.88;;
5981;SDS011;3018;48.730;9.336;2023-02-01T01:15:00;1.70;;;1.70;;
5981;SDS011;3018;48.730;9.336;2023-02-01T01:17:26;1.75;;;1.65;;
5981;SDS011;3018;48.730;9.336;2023-02-01T01:19:52;1.80;;;1.70;;
5981;SDS011;3018;48.730;9.336;2023-02-01T01:22:18;1.83;;;1.83;;
5981;SDS011;3018;48.730;9.336;2023-02-01T01:24:45;2.53;;;1.90;;
5981;SDS011;3018;48.730;9.336;2023-02-01T01:27:12;1.83;;;1.67;;
5981;SDS011;3018;48.730;9.336;2023-02-01T01:29:39;1.88;;;1.88;;
5981;SDS011;3018;48.730;9.336;2023-02-01T01:32:05;1.45;;;1.45;;
5981;SDS011;3018;48.730;9.336;2023-02-01T01:34:31;1.48;;;1.48;;
5981;SDS011;3018;48.730;9.336;2023-02-01T01:36:57;1.60;;;1.60;;
5981;SDS011;3018;48.730;9.336;2023-02-01T01:39:24;1.70;;;1.70;;
5981;SDS011;3018;48.730;9.336;2023-02-01T01:41:50;2.45;;;1.75;;
5981;SDS011;3018;48.730;9.336;2023-02-01T01:47:02;2.08;;;1.98;;
5981;SDS011;3018;48.730;9.336;2023-02-01T01:49:29;2.10;;;2.00;;
5981;SDS011;3018;48.730;9.336;2023-02-01T01:51:55;2.00;;;1.90;;
5981;SDS011;3018;48.730;9.336;2023-02-01T01:54:24;2.50;;;2.30;;
5981;SDS011;3018;48.730;9.336;2023-02-01T01:56:53;1.85;;;1.85;;
5981;SDS011;3018;48.730;9.336;2023-02-01T01:59:21;1.70;;;1.70;;
5981;SDS011;3018;48.730;9.336;2023-02-01T02:01:48;2.42;;;2.33;;
5981;SDS011;3018;48.730;9.336;2023-02-01T02:04:15;2.03;;;1.92;;
5981;SDS011;3018;48.730;9.336;2023-02-01T02:06:43;2.08;;;1.98;;
5981;SDS011;3018;48.730;9.336;2023-02-01T02:09:13;2.20;;;2.08;;
5981;SDS011;3018;48.730;9.336;2023-02-01T02:11:39;2.08;;;1.90;;
5981;SDS011;3018;48.730;9.336;2023-02-01T02:14:06;1.77;;;1.65;;
5981;SDS011;3018;48.730;9.336;2023-02-01T02:19:22;2.13;;;2.03;;
5981;SDS011;3018;48.730;9.336;2023-02-01T02:21:59;1.92;;;1.83;;
5981;SDS011;3018;48.730;9.336;2023-02-01T02:24:43;1.60;;;1.50;;
5981;SDS011;3018;48.730;9.336;2023-02-01T02:27:19;1.73;;;1.63;;
5981;SDS011;3018;48.730;9.336;2023-02-01T02:32:39;2.17;;;1.90;;
5981;SDS011;3018;48.730;9.336;2023-02-01T02:35:12;1.58;;;1.58;;
5981;SDS011;3018;48.730;9.336;2023-02-01T02:37:40;1.90;;;1.80;;
5981;SDS011;3018;48.730;9.336;2023-02-01T02:40:09;1.40;;;1.40;;
5981;SDS011;3018;48.730;9.336;2023-02-01T02:42:39;1.65;;;1.55;;
5981;SDS011;3018;48.730;9.336;2023-02-01T02:45:27;1.90;;;1.90;;
5981;SDS011;3018;48.730;9.336;2023-02-01T02:48:13;1.90;;;1.80;;
5981;SDS011;3018;48.730;9.336;2023-02-01T02:50:44;1.77;;;1.67;;
5981;SDS011;3018;48.730;9.336;2023-02-01T02:53:30;1.90;;;1.80;;
5981;SDS011;3018;48.730;9.336;2023-02-01T02:56:15;1.70;;;1.70;;
5981;SDS011;3018;48.730;9.336;2023-02-01T02:59:01;1.70;;;1.70;;
5981;SDS011;3018;48.730;9.336;2023-02-01T03:01:47;2.22;;;2.13;;
5981;SDS011;3018;48.730;9.336;2023-02-01T03:04:32;2.00;;;1.90;;
5981;SDS011;3018;48.730;9.336;2023-02-01T03:07:09;2.28;;;2.03;;
5981;SDS011;3018;48.730;9.336;2023-02-01T03:09:37;1.92;;;1.83;;
5981;SDS011;3018;48.730;9.336;2023-02-01T03:12:07;2.10;;;2.00;;
5981;SDS011;3018;48.730;9.336;2023-02-01T03:14:54;1.92;;;1.92;;
5981;SDS011;3018;48.730;9.336;2023-02-01T03:17:24;1.90;;;1.90;;
5981;SDS011;3018;48.730;9.336;2023-02-01T03:19:53;2.00;;;1.90;;
5981;SDS011;3018;48.730;9.336;2023-02-01T03:22:23;2.60;;;2.50;;
5981;SDS011;3018;48.730;9.336;2023-02-01T03:24:51;2.30;;;2.20;;
5981;SDS011;3018;48.730;9.336;2023-02-01T03:27:20;2.95;;;2.85;;
5981;SDS011;3018;48.730;9.336;2023-02-01T03:29:48;2.20;;;2.03;;
5981;SDS011;3018;48.730;9.336;2023-02-01T03:32:15;2.30;;;2.20;;
5981;SDS011;3018;48.730;9.336;2023-02-01T03:34:42;2.40;;;2.30;;
5981;SDS011;3018;48.730;9.336;2023-02-01T03:37:09;2.38;;;2.28;;
5981;SDS011;3018;48.730;9.336;2023-02-01T03:39:38;2.28;;;2.17;;
5981;SDS011;3018;48.730;9.336;2023-02-01T03:42:06;2.47;;;2.30;;
5981;SDS011;3018;48.730;9.336;2023-02-01T03:44:36;2.38;;;2.20;;
5981;SDS011;3018;48.730;9.336;2023-02-01T03:47:03;2.00;;;1.90;;
5981;SDS011;3018;48.730;9.336;2023-02-01T03:49:34;2.20;;;2.10;;
5981;SDS011;3018;48.730;9.336;2023-02-01T03:52:01;2.20;;;2.10;;
5981;SDS011;3018;48.730;9.336;2023-02-01T03:54:28;2.28;;;2.17;;
5981;SDS011;3018;48.730;9.336;2023-02-01T03:56:57;2.20;;;2.00;;
5981;SDS011;3018;48.730;9.336;2023-02-01T03:59:25;3.17;;;1.80;;
5981;SDS011;3018;48.730;9.336;2023-02-01T04:01:51;1.95;;;1.85;;
5981;SDS011;3018;48.730;9.336;2023-02-01T04:04:18;2.30;;;2.20;;
5981;SDS011;3018;48.730;9.336;2023-02-01T04:06:45;2.00;;;1.92;;
5981;SDS011;3018;48.730;9.336;2023-02-01T04:09:11;2.17;;;2.08;;
5981;SDS011;3018;48.730;9.336;2023-02-01T04:11:38;2.13;;;2.03;;
5981;SDS011;3018;48.730;9.336;2023-02-01T04:14:05;2.20;;;2.00;;
5981;SDS011;3018;48.730;9.336;2023-02-01T04:16:32;2.40;;;2.30;;
5981;SDS011;3018;48.730;9.336;2023-02-01T04:18:58;2.42;;;2.17;;
5981;SDS011;3018;48.730;9.336;2023-02-01T04:21:25;2.25;;;2.15;;
5981;SDS011;3018;48.730;9.336;2023-02-01T04:23:51;1.95;;;1.95;;
5981;SDS011;3018;48.730;9.336;2023-02-01T04:26:17;2.10;;;2.03;;
5981;SDS011;3018;48.730;9.336;2023-02-01T04:28:44;2.20;;;2.10;;
5981;SDS011;3018;48.730;9.336;2023-02-01T04:31:14;2.17;;;2.08;;
5981;SDS011;3018;48.730;9.336;2023-02-01T04:33:40;1.60;;;1.60;;
5981;SDS011;3018;48.730;9.336;2023-02-01T04:36:06;2.20;;;2.10;;
5981;SDS011;3018;48.730;9.336;2023-02-01T04:38:32;3.35;;;2.13;;
5981;SDS011;3018;48.730;9.336;2023-02-01T04:40:59;2.53;;;1.90;;
5981;SDS011;3018;48.730;9.336;2023-02-01T04:43:25;2.00;;;1.90;;
5981;SDS011;3018;48.730;9.336;2023-02-01T04:45:52;3.10;;;2.97;;
5981;SDS011;3018;48.730;9.336;2023-02-01T04:48:20;2.30;;;2.20;;
5981;SDS011;3018;48.730;9.336;2023-02-01T04:50:47;2.28;;;2.17;;
5981;SDS011;3018;48.730;9.336;2023-02-01T04:53:14;1.92;;;1.92;;
5981;SDS011;3018;48.730;9.336;2023-02-01T04:55:40;2.47;;;2.38;;
5981;SDS011;3018;48.730;9.336;2023-02-01T04:58:06;8.63;;;5.28;;
5981;SDS011;3018;48.730;9.336;2023-02-01T05:00:33;2.22;;;2.13;;
5981;SDS011;3018;48.730;9.336;2023-02-01T05:02:59;2.00;;;1.90;;
5981;SDS011;3018;48.730;9.336;2023-02-01T05:05:27;8.93;;;6.13;;
5981;SDS011;3018;48.730;9.336;2023-02-01T05:07:54;18.85;;;10.50;;
5981;SDS011;3018;48.730;9.336;2023-02-01T05:10:20;1.98;;;1.90;;
5981;SDS011;3018;48.730;9.336;2023-02-01T05:12:46;2.50;;;2.30;;
5981;SDS011;3018;48.730;9.336;2023-02-01T05:15:30;2.30;;;2.20;;
5981;SDS011;3018;48.730;9.336;2023-02-01T05:17:57;2.10;;;2.00;;
5981;SDS011;3018;48.730;9.336;2023-02-01T05:20:23;1.98;;;1.92;;
5981;SDS011;3018;48.730;9.336;2023-02-01T05:22:51;1.73;;;1.63;;
5981;SDS011;3018;48.730;9.336;2023-02-01T05:25:17;3.10;;;2.90;;
5981;SDS011;3018;48.730;9.336;2023-02-01T05:27:43;1.95;;;1.90;;
5981;SDS011;3018;48.730;9.336;2023-02-01T05:30:10;1.90;;;1.90;;
5981;SDS011;3018;48.730;9.336;2023-02-01T05:32:37;1.67;;;1.67;;
5981;SDS011;3018;48.730;9.336;2023-02-01T05:35:03;2.03;;;1.80;;
5981;SDS011;3018;48.730;9.336;2023-02-01T05:37:29;1.90;;;1.80;;
5981;SDS011;3018;48.730;9.336;2023-02-01T05:39:57;2.10;;;2.00;;
5981;SDS011;3018;48.730;9.336;2023-02-01T05:42:23;2.03;;;1.92;;
5981;SDS011;3018;48.730;9.336;2023-02-01T05:44:49;1.90;;;1.80;;
5981;SDS011;3018;48.730;9.336;2023-02-01T05:47:16;1.60;;;1.60;;
5981;SDS011;3018;48.730;9.336;2023-02-01T05:49:42;1.83;;;1.83;;
5981;SDS011;3018;48.730;9.336;2023-02-01T05:52:08;1.90;;;1.85;;
5981;SDS011;3018;48.730;9.336;2023-02-01T05:54:35;2.22;;;2.10;;
5981;SDS011;3018;48.730;9.336;2023-02-01T05:57:02;2.10;;;1.90;;
5981;SDS011;3018;48.730;9.336;2023-02-01T05:59:28;1.80;;;1.80;;
5981;SDS011;3018;48.730;9.336;2023-02-01T06:01:55;1.83;;;1.83;;
5981;SDS011;3018;48.730;9.336;2023-02-01T06:04:21;1.90;;;1.80;;
5981;SDS011;3018;48.730;9.336;2023-02-01T06:06:47;1.60;;;1.50;;
5981;SDS011;3018;48.730;9.336;2023-02-01T06:09:15;1.58;;;1.55;;
5981;SDS011;3018;48.730;9.336;2023-02-01T06:11:41;1.60;;;1.58;;
5981;SDS011;3018;48.730;9.336;2023-02-01T06:14:09;1.65;;;1.65;;
5981;SDS011;3018;48.730;9.336;2023-02-01T06:16:35;2.25;;;2.08;;
5981;SDS011;3018;48.730;9.336;2023-02-01T06:19:02;1.85;;;1.80;;
5981;SDS011;3018;48.730;9.336;2023-02-01T06:21:28;2.03;;;1.92;;
5981;SDS011;3018;48.730;9.336;2023-02-01T06:23:54;1.67;;;1.67;;
5981;SDS011;3018;48.730;9.336;2023-02-01T06:26:22;1.80;;;1.80;;
5981;SDS011;3018;48.730;9.336;2023-02-01T06:28:49;2.58;;;2.03;;
5981;SDS011;3018;48.730;9.336;2023-02-01T06:31:16;1.98;;;1.88;;
5981;SDS011;3018;48.730;9.336;2023-02-01T06:33:42;3.03;;;2.72;;
5981;SDS011;3018;48.730;9.336;2023-02-01T06:36:09;2.50;;;1.90;;
5981;SDS011;3018;48.730;9.336;2023-02-01T06:38:37;1.92;;;1.90;;
5981;SDS011;3018;48.730;9.336;2023-02-01T06:41:04;3.03;;;2.80;;
5981;SDS011;3018;48.730;9.336;2023-02-01T06:43:31;1.90;;;1.80;;
5981;SDS011;3018;48.730;9.336;2023-02-01T06:45:59;3.40;;;2.22;;
5981;SDS011;3018;48.730;9.336;2023-02-01T06:48:27;2.60;;;2.42;;
5981;SDS011;3018;48.730;9.336;2023-02-01T06:50:53;3.10;;;2.25;;
5981;SDS011;3018;48.730;9.336;2023-02-01T06:53:20;2.60;;;2.40;;
5981;SDS011;3018;48.730;9.336;2023-02-01T06:55:52;2.50;;;2.28;;
5981;SDS011;3018;48.730;9.336;2023-02-01T06:58:19;1.90;;;1.80;;
5981;SDS011;3018;48.730;9.336;2023-02-01T07:00:45;6.35;;;2.15;;
5981;SDS011;3018;48.730;9.336;2023-02-01T07:03:11;2.40;;;2.20;;
5981;SDS011;3018;48.730;9.336;2023-02-01T07:05:39;3.88;;;1.90;;
5981;SDS011;3018;48.730;9.336;2023-02-01T07:08:05;2.50;;;2.40;;
5981;SDS011;3018;48.730;9.336;2023-02-01T07:10:31;2.92;;;2.70;;
5981;SDS011;3018;48.730;9.336;2023-02-01T07:12:58;2.53;;;2.38;;
5981;SDS011;3018;48.730;9.336;2023-02-01T07:15:24;2.33;;;2.22;;
5981;SDS011;3018;48.730;9.336;2023-02-01T07:17:51;3.03;;;2.00;;
5981;SDS011;3018;48.730;9.336;2023-02-01T07:20:17;3.65;;;1.67;;
5981;SDS011;3018;48.730;9.336;2023-02-01T07:22:45;2.38;;;1.80;;
5981;SDS011;3018;48.730;9.336;2023-02-01T07:25:11;1.65;;;1.60;;
5981;SDS011;3018;48.730;9.336;2023-02-01T07:27:37;2.05;;;1.70;;
5981;SDS011;3018;48.730;9.336;2023-02-01T07:30:04;1.85;;;1.70;;
5981;SDS011;3018;48.730;9.336;2023-02-01T07:32:30;1.63;;;1.23;;
5981;SDS011;3018;48.730;9.336;2023-02-01T07:34:57;2.42;;;1.85;;
5981;SDS011;3018;48.730;9.336;2023-02-01T07:37:23;1.75;;;1.58;;
5981;SDS011;3018;48.730;9.336;2023-02-01T07:39:51;1.40;;;1.30;;
5981;SDS011;3018;48.730;9.336;2023-02-01T07:42:18;1.85;;;1.70;;
5981;SDS011;3018;48.730;9.336;2023-02-01T07:44:44;1.58;;;1.48;;
5981;SDS011;3018;48.730;9.336;2023-02-01T07:47:10;1.98;;;1.88;;
5981;SDS011;3018;48.730;9.336;2023-02-01T07:49:37;1.83;;;1.73;;
5981;SDS011;3018;48.730;9.336;2023-02-01T07:52:03;1.80;;;1.65;;
5981;SDS011;3018;48.730;9.336;2023-02-01T07:54:29;2.70;;;1.73;;
5981;SDS011;3018;48.730;9.336;2023-02-01T07:56:57;2.28;;;2.03;;
5981;SDS011;3018;48.730;9.336;2023-02-01T07:59:23;1.85;;;1.73;;
5981;SDS011;3018;48.730;9.336;2023-02-01T08:01:49;2.95;;;1.80;;
5981;SDS011;3018;48.730;9.336;2023-02-01T08:04:14;1.42;;;1.40;;
5981;SDS011;3018;48.730;9.336;2023-02-01T08:06:41;1.85;;;1.75;;
5981;SDS011;3018;48.730;9.336;2023-02-01T08:09:07;1.95;;;1.70;;
5981;SDS011;3018;48.730;9.336;2023-02-01T08:11:35;1.95;;;1.73;;
5981;SDS011;3018;48.730;9.336;2023-02-01T08:14:04;1.75;;;1.60;;
5981;SDS011;3018;48.730;9.336;2023-02-01T08:16:31;2.83;;;1.73;;
5981;SDS011;3018;48.730;9.336;2023-02-01T08:18:59;1.88;;;1.77;;
5981;SDS011;3018;48.730;9.336;2023-02-01T08:21:26;1.60;;;1.50;;
5981;SDS011;3018;48.730;9.336;2023-02-01T08:24:01;2.75;;;1.63;;
5981;SDS011;3018;48.730;9.336;2023-02-01T08:26:27;1.85;;;1.75;;
5981;SDS011;3018;48.730;9.336;2023-02-01T08:28:54;1.67;;;1.58;;
5981;SDS011;3018;48.730;9.336;2023-02-01T08:31:22;1.80;;;1.70;;
5981;SDS011;3018;48.730;9.336;2023-02-01T08:33:49;3.45;;;1.50;;
5981;SDS011;3018;48.730;9.336;2023-02-01T08:36:16;3.47;;;1.80;;
5981;SDS011;3018;48.730;9.336;2023-02-01T08:38:43;1.50;;;1.40;;
5981;SDS011;3018;48.730;9.336;2023-02-01T08:41:10;1.60;;;1.58;;
5981;SDS011;3018;48.730;9.336;2023-02-01T08:43:37;3.28;;;1.95;;
5981;SDS011;3018;48.730;9.336;2023-02-01T08:46:03;1.55;;;1.55;;
5981;SDS011;3018;48.730;9.336;2023-02-01T08:48:31;2.53;;;1.95;;
5981;SDS011;3018;48.730;9.336;2023-02-01T08:51:00;1.60;;;1.60;;
5981;SDS011;3018;48.730;9.336;2023-02-01T08:53:26;4.90;;;1.95;;
5981;SDS011;3018;48.730;9.336;2023-02-01T08:55:52;2.28;;;2.00;;
5981;SDS011;3018;48.730;9.336;2023-02-01T08:58:19;3.22;;;1.85;;
5981;SDS011;3018;48.730;9.336;2023-02-01T09:00:46;4.25;;;2.17;;
5981;SDS011;3018;48.730;9.336;2023-02-01T09:03:13;2.40;;;2.00;;
5981;SDS011;3018;48.730;9.336;2023-02-01T09:05:41;4.03;;;2.20;;
5981;SDS011;3018;48.730;9.336;2023-02-01T09:08:08;2.28;;;2.08;;
5981;SDS011;3018;48.730;9.336;2023-02-01T09:10:34;2.95;;;1.75;;
5981;SDS011;3018;48.730;9.336;2023-02-01T09:13:02;1.77;;;1.73;;
5981;SDS011;3018;48.730;9.336;2023-02-01T09:15:28;2.67;;;1.77;;
5981;SDS011;3018;48.730;9.336;2023-02-01T09:17:54;2.60;;;1.92;;
5981;SDS011;3018;48.730;9.336;2023-02-01T09:20:20;1.75;;;1.65;;
5981;SDS011;3018;48.730;9.336;2023-02-01T09:22:52;4.45;;;2.30;;
5981;SDS011;3018;48.730;9.336;2023-02-01T09:25:19;2.08;;;1.95;;
5981;SDS011;3018;48.730;9.336;2023-02-01T09:27:45;1.73;;;1.63;;
5981;SDS011;3018;48.730;9.336;2023-02-01T09:30:11;3.63;;;2.10;;
5981;SDS011;3018;48.730;9.336;2023-02-01T09:32:38;3.88;;;2.05;;
5981;SDS011;3018;48.730;9.336;2023-02-01T09:35:04;4.60;;;2.35;;
5981;SDS011;3018;48.730;9.336;2023-02-01T09:37:30;5.22;;;3.08;;
5981;SDS011;3018;48.730;9.336;2023-02-01T09:39:59;1.70;;;1.70;;
5981;SDS011;3018;48.730;9.336;2023-02-01T09:42:30;1.85;;;1.75;;
5981;SDS011;3018;48.730;9.336;2023-02-01T09:45:14;2.95;;;2.10;;
5981;SDS011;3018;48.730;9.336;2023-02-01T09:47:45;1.98;;;1.80;;
5981;SDS011;3018;48.730;9.336;2023-02-01T09:50:14;2.25;;;1.75;;
5981;SDS011;3018;48.730;9.336;2023-02-01T09:52:42;2.45;;;1.90;;
5981;SDS011;3018;48.730;9.336;2023-02-01T09:55:11;4.95;;;3.20;;
5981;SDS011;3018;48.730;9.336;2023-02-01T09:57:41;4.18;;;2.00;;
5981;SDS011;3018;48.730;9.336;2023-02-01T10:00:13;2.25;;;1.77;;
5981;SDS011;3018;48.730;9.336;2023-02-01T10:02:41;2.28;;;1.58;;
5981;SDS011;3018;48.730;9.336;2023-02-01T10:05:10;3.92;;;1.88;;
5981;SDS011;3018;48.730;9.336;2023-02-01T10:07:40;4.68;;;1.85;;
5981;SDS011;3018;48.730;9.336;2023-02-01T10:10:10;4.45;;;1.85;;
5981;SDS011;3018;48.730;9.336;2023-02-01T10:15:28;2.45;;;2.25;;
5981;SDS011;3018;48.730;9.336;2023-02-01T10:18:10;4.75;;;2.30;;
5981;SDS011;3018;48.730;9.336;2023-02-01T10:20:43;4.32;;;2.20;;
5981;SDS011;3018;48.730;9.336;2023-02-01T10:23:15;3.85;;;2.28;;
5981;SDS011;3018;48.730;9.336;2023-02-01T10:25:49;5.05;;;1.92;;
5981;SDS011;3018;48.730;9.336;2023-02-01T10:28:19;3.50;;;1.75;;
5981;SDS011;3018;48.730;9.336;2023-02-01T10:30:48;8.57;;;2.17;;
5981;SDS011;3018;48.730;9.336;2023-02-01T10:33:16;1.90;;;1.70;;
5981;SDS011;3018;48.730;9.336;2023-02-01T10:35:42;5.18;;;1.95;;
5981;SDS011;3018;48.730;9.336;2023-02-01T10:38:12;2.92;;;1.67;;
5981;SDS011;3018;48.730;9.336;2023-02-01T10:40:42;8.10;;;1.95;;
5981;SDS011;3018;48.730;9.336;2023-02-01T10:43:08;3.63;;;1.67;;
5981;SDS011;3018;48.730;9.336;2023-02-01T10:45:35;4.57;;;1.92;;
5981;SDS011;3018;48.730;9.336;2023-02-01T10:48:06;2.83;;;1.90;;
5981;SDS011;3018;48.730;9.336;2023-02-01T10:50:34;4.55;;;2.10;;
5981;SDS011;3018;48.730;9.336;2023-02-01T10:53:02;8.05;;;2.10;;
5981;SDS011;3018;48.730;9.336;2023-02-01T10:55:32;4.43;;;2.10;;
5981;SDS011;3018;48.730;9.336;2023-02-01T10:57:59;5.60;;;1.95;;
5981;SDS011;3018;48.730;9.336;2023-02-01T11:00:26;3.33;;;2.05;;
5981;SDS011;3018;48.730;9.336;2023-02-01T11:02:53;6.53;;;1.90;;
5981;SDS011;3018;48.730;9.336;2023-02-01T11:05:20;4.85;;;2.03;;
5981;SDS011;3018;48.730;9.336;2023-02-01T11:07:49;4.72;;;2.00;;
5981;SDS011;3018;48.730;9.336;2023-02-01T11:12:57;4.50;;;1.63;;
5981;SDS011;3018;48.730;9.336;2023-02-01T11:15:23;8.32;;;2.08;;
5981;SDS011;3018;48.730;9.336;2023-02-01T11:17:51;4.57;;;2.00;;
5981;SDS011;3018;48.730;9.336;2023-02-01T11:20:23;6.53;;;2.10;;
5981;SDS011;3018;48.730;9.336;2023-02-01T11:22:53;10.10;;;2.25;;
5981;SDS011;3018;48.730;9.336;2023-02-01T11:25:20;5.72;;;2.00;;
5981;SDS011;3018;48.730;9.336;2023-02-01T11:27:47;11.52;;;2.47;;
5981;SDS011;3018;48.730;9.336;2023-02-01T11:30:15;12.95;;;2.38;;
5981;SDS011;3018;48.730;9.336;2023-02-01T11:32:42;4.20;;;2.17;;
5981;SDS011;3018;48.730;9.336;2023-02-01T11:35:11;10.43;;;3.03;;
5981;SDS011;3018;48.730;9.336;2023-02-01T11:37:41;4.40;;;1.85;;
5981;SDS011;3018;48.730;9.336;2023-02-01T11:40:22;7.57;;;2.63;;
5981;SDS011;3018;48.730;9.336;2023-02-01T11:42:53;6.15;;;2.67;;
5981;SDS011;3018;48.730;9.336;2023-02-01T11:45:20;12.48;;;2.53;;
5981;SDS011;3018;48.730;9.336;2023-02-01T11:47:51;9.18;;;2.10;;
5981;SDS011;3018;48.730;9.336;2023-02-01T11:50:18;7.40;;;2.08;;
5981;SDS011;3018;48.730;9.336;2023-02-01T11:55:42;10.45;;;2.85;;
5981;SDS011;3018;48.730;9.336;2023-02-01T11:58:22;15.00;;;2.45;;
5981;SDS011;3018;48.730;9.336;2023-02-01T12:01:08;10.60;;;2.10;;
5981;SDS011;3018;48.730;9.336;2023-02-01T12:03:41;7.15;;;2.33;;
5981;SDS011;3018;48.730;9.336;2023-02-01T12:06:13;10.70;;;2.60;;
5981;SDS011;3018;48.730;9.336;2023-02-01T12:08:49;10.65;;;2.15;;
5981;SDS011;3018;48.730;9.336;2023-02-01T12:11:23;6.53;;;2.28;;
5981;SDS011;3018;48.730;9.336;2023-02-01T12:13:53;6.75;;;2.40;;
5981;SDS011;3018;48.730;9.336;2023-02-01T12:16:23;9.75;;;2.92;;
5981;SDS011;3018;48.730;9.336;2023-02-01T12:18:55;17.85;;;4.20;;
5981;SDS011;3018;48.730;9.336;2023-02-01T12:21:42;12.52;;;2.17;;
5981;SDS011;3018;48.730;9.336;2023-02-01T12:26:58;8.98;;;2.25;;
5981;SDS011;3018;48.730;9.336;2023-02-01T12:32:10;8.55;;;2.25;;
5981;SDS011;3018;48.730;9.336;2023-02-01T12:34:41;9.25;;;2.13;;
5981;SDS011;3018;48.730;9.336;2023-02-01T12:37:13;11.10;;;2.67;;
5981;SDS011;3018;48.730;9.336;2023-02-01T12:39:43;11.23;;;2.50;;
5981;SDS011;3018;48.730;9.336;2023-02-01T12:42:16;15.70;;;2.70;;
5981;SDS011;3018;48.730;9.336;2023-02-01T12:44:43;8.50;;;2.75;;
5981;SDS011;3018;48.730;9.336;2023-02-01T12:47:14;8.52;;;2.25;;
5981;SDS011;3018;48.730;9.336;2023-02-01T12:49:47;8.10;;;2.20;;
5981;SDS011;3018;48.730;9.336;2023-02-01T12:52:16;8.45;;;1.75;;
5981;SDS011;3018;48.730;9.336;2023-02-01T12:54:45;11.50;;;2.08;;
5981;SDS011;3018;48.730;9.336;2023-02-01T12:57:13;11.15;;;2.50;;
5981;SDS011;3018;48.730;9.336;2023-02-01T12:59:44;6.63;;;2.35;;
5981;SDS011;3018;48.730;9.336;2023-02-01T13:02:14;7.57;;;2.00;;
5981;SDS011;3018;48.730;9.336;2023-02-01T13:04:44;10.80;;;2.95;;
5981;SDS011;3018;48.730;9.336;2023-02-01T13:07:14;10.38;;;2.88;;
5981;SDS011;3018;48.730;9.336;2023-02-01T13:09:43;13.20;;;2.67;;
5981;SDS011;3018;48.730;9.336;2023-02-01T13:12:13;9.73;;;2.20;;
5981;SDS011;3018;48.730;9.336;2023-02-01T13:14:40;9.63;;;2.10;;
5981;SDS011;3018;48.730;9.336;2023-02-01T13:17:11;13.50;;;2.83;;
5981;SDS011;3018;48.730;9.336;2023-02-01T13:19:41;8.90;;;2.08;;
5981;SDS011;3018;48.730;9.336;2023-02-01T13:22:10;12.50;;;2.38;;
5981;SDS011;3018;48.730;9.336;2023-02-01T13:24:38;6.43;;;2.13;;
5981;SDS011;3018;48.730;9.336;2023-02-01T13:27:08;7.40;;;2.10;;
5981;SDS011;3018;48.730;9.336;2023-02-01T13:29:35;13.88;;;2.50;;
5981;SDS011;3018;48.730;9.336;2023-02-01T13:32:10;7.93;;;2.20;;
5981;SDS011;3018;48.730;9.336;2023-02-01T13:34:47;7.70;;;2.35;;
5981;SDS011;3018;48.730;9.336;2023-02-01T13:37:26;11.45;;;2.53;;
5981;SDS011;3018;48.730;9.336;2023-02-01T13:39:58;13.95;;;3.17;;
5981;SDS011;3018;48.730;9.336;2023-02-01T13:42:26;9.30;;;2.42;;
5981;SDS011;3018;48.730;9.336;2023-02-01T13:44:56;7.80;;;2.08;;
5981;SDS011;3018;48.730;9.336;2023-02-01T13:47:24;10.52;;;2.55;;
5981;SDS011;3018;48.730;9.336;2023-02-01T13:49:53;12.50;;;2.58;;
5981;SDS011;3018;48.730;9.336;2023-02-01T13:52:28;6.95;;;2.47;;
5981;SDS011;3018;48.730;9.336;2023-02-01T13:55:01;8.52;;;2.47;;
5981;SDS011;3018;48.730;9.336;2023-02-01T13:57:34;11.65;;;2.65;;
5981;SDS011;3018;48.730;9.336;2023-02-01T14:00:05;12.48;;;3.72;;
5981;SDS011;3018;48.730;9.336;2023-02-01T14:02:59;9.13;;;2.60;;
5981;SDS011;3018;48.730;9.336;2023-02-01T14:08:14;7.40;;;2.22;;
5981;SDS011;3018;48.730;9.336;2023-02-01T14:10:48;9.95;;;2.60;;
5981;SDS011;3018;48.730;9.336;2023-02-01T14:13:22;15.13;;;2.50;;
5981;SDS011;3018;48.730;9.336;2023-02-01T14:16:10;6.00;;;1.88;;
5981;SDS011;3018;48.730;9.336;2023-02-01T14:21:22;5.97;;;2.25;;
5981;SDS011;3018;48.730;9.336;2023-02-01T14:23:56;8.60;;;2.00;;
5981;SDS011;3018;48.730;9.336;2023-02-01T14:26:23;12.57;;;2.47;;
5981;SDS011;3018;48.730;9.336;2023-02-01T14:28:52;8.90;;;2.17;;
5981;SDS011;3018;48.730;9.336;2023-02-01T14:34:19;9.07;;;2.20;;
5981;SDS011;3018;48.730;9.336;2023-02-01T14:36:51;8.13;;;2.83;;
5981;SDS011;3018;48.730;9.336;2023-02-01T14:39:26;12.30;;;2.75;;
5981;SDS011;3018;48.730;9.336;2023-02-01T14:41:55;9.35;;;2.50;;
5981;SDS011;3018;48.730;9.336;2023-02-01T14:44:24;9.93;;;2.85;;
5981;SDS011;3018;48.730;9.336;2023-02-01T14:47:10;8.90;;;2.47;;
5981;SDS011;3018;48.730;9.336;2023-02-01T14:49:53;10.77;;;2.40;;
5981;SDS011;3018;48.730;9.336;2023-02-01T14:52:20;8.30;;;2.08;;
5981;SDS011;3018;48.730;9.336;2023-02-01T14:54:50;14.10;;;2.35;;
5981;SDS011;3018;48.730;9.336;2023-02-01T14:57:18;12.52;;;2.30;;
5981;SDS011;3018;48.730;9.336;2023-02-01T14:59:46;7.43;;;2.25;;
5981;SDS011;3018;48.730;9.336;2023-02-01T15:02:17;9.35;;;2.42;;
5981;SDS011;3018;48.730;9.336;2023-02-01T15:04:44;13.52;;;2.58;;
5981;SDS011;3018;48.730;9.336;2023-02-01T15:07:11;5.78;;;2.50;;
5981;SDS011;3018;48.730;9.336;2023-02-01T15:09:42;15.02;;;2.95;;
5981;SDS011;3018;48.730;9.336;2023-02-01T15:12:15;8.90;;;2.53;;
5981;SDS011;3018;48.730;9.336;2023-02-01T15:14:43;12.57;;;2.58;;
5981;SDS011;3018;48.730;9.336;2023-02-01T15:17:17;10.07;;;2.08;;
5981;SDS011;3018;48.730;9.336;2023-02-01T15:19:52;10.20;;;2.42;;
5981;SDS011;3018;48.730;9.336;2023-02-01T15:22:18;5.97;;;2.10;;
5981;SDS011;3018;48.730;9.336;2023-02-01T15:24:51;12.73;;;2.67;;
5981;SDS011;3018;48.730;9.336;2023-02-01T15:27:18;9.40;;;2.65;;
5981;SDS011;3018;48.730;9.336;2023-02-01T15:29:45;11.10;;;2.25;;
5981;SDS011;3018;48.730;9.336;2023-02-01T15:34:52;4.53;;;2.22;;
5981;SDS011;3018;48.730;9.336;2023-02-01T15:37:20;10.60;;;2.70;;
5981;SDS011;3018;48.730;9.336;2023-02-01T15:40:03;11.07;;;2.33;;
5981;SDS011;3018;48.730;9.336;2023-02-01T15:42:30;9.88;;;2.50;;
5981;SDS011;3018;48.730;9.336;2023-02-01T15:44:57;5.60;;;1.98;;
5981;SDS011;3018;48.730;9.336;2023-02-01T15:47:23;5.55;;;2.15;;
5981;SDS011;3018;48.730;9.336;2023-02-01T15:49:51;6.88;;;2.20;;
5981;SDS011;3018;48.730;9.336;2023-02-01T15:52:21;15.45;;;2.42;;
5981;SDS011;3018;48.730;9.336;2023-02-01T15:54:49;12.25;;;2.97;;
5981;SDS011;3018;48.730;9.336;2023-02-01T15:57:18;7.10;;;2.17;;